DAL2307 KLAS-KMSP
Flight info
| Callsign | DAL2307 |
|---|---|
| Flight time | N/A |
| Altitude | 35000 |
| Route | GIDGT3 TUKRR DCT HBU DCT SNY DCT SSWAN TORGY4 |
| Aircraft | A321/M-SDE3FGHIRWY/LB1 |
Departure
| Time | N/A |
|---|---|
| Airport | Harry Reid International Airport (KLAS) |
Arrival
| Time | 2026-05-04 03:20 |
|---|---|
| Airport | Minneapolis–Saint Paul International Airport / Wold–Chamberlain Field (KMSP) |
| Time | Latitude | Longitude | Altitude | Speed | Heading |
|---|---|---|---|---|---|
| 2026-05-04 03:11 | 44.79172 | -93.28755 | 8126 ft | 261 kts | 123° |
| 2026-05-04 03:11 | 44.78230 | -93.26576 | 8012 ft | 260 kts | 124° |
| 2026-05-04 03:11 | 44.77303 | -93.24435 | 8003 ft | 260 kts | 124° |
| 2026-05-04 03:11 | 44.76359 | -93.22265 | 8005 ft | 260 kts | 124° |
| 2026-05-04 03:12 | 44.75413 | -93.20099 | 8020 ft | 260 kts | 124° |
| 2026-05-04 03:12 | 44.74472 | -93.17919 | 7826 ft | 260 kts | 123° |
| 2026-05-04 03:12 | 44.73547 | -93.15749 | 7653 ft | 258 kts | 123° |
| 2026-05-04 03:12 | 44.72661 | -93.13668 | 7482 ft | 257 kts | 123° |
| 2026-05-04 03:13 | 44.71744 | -93.11512 | 7319 ft | 257 kts | 123° |
| 2026-05-04 03:13 | 44.70829 | -93.09361 | 7142 ft | 256 kts | 123° |
| 2026-05-04 03:13 | 44.69947 | -93.07237 | 6970 ft | 256 kts | 118° |
| 2026-05-04 03:13 | 44.69475 | -93.05017 | 6629 ft | 257 kts | 97° |
| 2026-05-04 03:14 | 44.69550 | -93.02777 | 6318 ft | 255 kts | 77° |
| 2026-05-04 03:14 | 44.70200 | -93.00488 | 5957 ft | 251 kts | 55° |
| 2026-05-04 03:14 | 44.71330 | -92.98677 | 5631 ft | 245 kts | 34° |
| 2026-05-04 03:14 | 44.72766 | -92.97523 | 5321 ft | 234 kts | 14° |
| 2026-05-04 03:15 | 44.74289 | -92.97089 | 5032 ft | 215 kts | 357° |
| 2026-05-04 03:15 | 44.75716 | -92.97283 | 4745 ft | 199 kts | 340° |
| 2026-05-04 03:15 | 44.76942 | -92.97960 | 4495 ft | 188 kts | 324° |
| 2026-05-04 03:15 | 44.77976 | -92.99020 | 4248 ft | 182 kts | 311° |
| 2026-05-04 03:16 | 44.78768 | -93.00370 | 4005 ft | 177 kts | 298° |
| 2026-05-04 03:16 | 44.79405 | -93.01850 | 3783 ft | 176 kts | 297° |
| 2026-05-04 03:16 | 44.80043 | -93.03312 | 3548 ft | 172 kts | 297° |
| 2026-05-04 03:16 | 44.80661 | -93.04717 | 3331 ft | 167 kts | 297° |
| 2026-05-04 03:17 | 44.81265 | -93.06098 | 3109 ft | 165 kts | 297° |
| 2026-05-04 03:17 | 44.81866 | -93.07471 | 2885 ft | 164 kts | 296° |
| 2026-05-04 03:17 | 44.82462 | -93.08839 | 2682 ft | 163 kts | 297° |
| 2026-05-04 03:17 | 44.83023 | -93.10121 | 2458 ft | 147 kts | 296° |
| 2026-05-04 03:18 | 44.83538 | -93.11305 | 2257 ft | 141 kts | 296° |
| 2026-05-04 03:18 | 44.84045 | -93.12476 | 2076 ft | 138 kts | 296° |
| 2026-05-04 03:18 | 44.84544 | -93.13630 | 1889 ft | 138 kts | 296° |
| 2026-05-04 03:18 | 44.85024 | -93.14740 | 1717 ft | 139 kts | 297° |
| 2026-05-04 03:19 | 44.85519 | -93.15889 | 1540 ft | 142 kts | 297° |
| 2026-05-04 03:19 | 44.86022 | -93.17096 | 1387 ft | 143 kts | 298° |
| 2026-05-04 03:19 | 44.86542 | -93.18282 | 1211 ft | 142 kts | 300° |
| 2026-05-04 03:19 | 44.87069 | -93.19477 | 1014 ft | 145 kts | 300° |
| 2026-05-04 03:20 | 44.87588 | -93.20662 | 828 ft | 138 kts | 299° |
| 2026-05-04 03:20 | 44.88014 | -93.21653 | 822 ft | 91 kts | 302° |
| 2026-05-04 03:20 | 44.88256 | -93.22207 | 824 ft | 49 kts | 301° |
| 2026-05-04 03:20 | 44.88386 | -93.22445 | 824 ft | 16 kts | 352° |
| 2026-05-04 03:21 | 44.88442 | -93.22412 | 821 ft | 0 kts | 36° |
| 2026-05-04 03:23 | 44.88452 | -93.22372 | 824 ft | 11 kts | 92° |
| 2026-05-04 03:23 | 44.88404 | -93.22254 | 821 ft | 14 kts | 122° |
| 2026-05-04 03:23 | 44.88371 | -93.22178 | 825 ft | 13 kts | 122° |
| 2026-05-04 03:23 | 44.88324 | -93.22069 | 825 ft | 13 kts | 121° |
| 2026-05-04 03:24 | 44.88271 | -93.21946 | 823 ft | 19 kts | 121° |
| 2026-05-04 03:24 | 44.88178 | -93.21733 | 824 ft | 19 kts | 121° |
| 2026-05-04 03:24 | 44.88109 | -93.21574 | 825 ft | 19 kts | 122° |
| 2026-05-04 03:24 | 44.88085 | -93.21483 | 825 ft | 2 kts | 93° |
| 2026-05-04 03:25 | 44.88080 | -93.21459 | 825 ft | 10 kts | 114° |
| 2026-05-04 03:25 | 44.88027 | -93.21335 | 825 ft | 29 kts | 113° |
| 2026-05-04 03:25 | 44.87990 | -93.21089 | 824 ft | 22 kts | 128° |
| 2026-05-04 03:25 | 44.87918 | -93.20905 | 826 ft | 20 kts | 108° |
| 2026-05-04 03:26 | 44.87965 | -93.20795 | 825 ft | 6 kts | 25° |
| 2026-05-04 03:26 | 44.87975 | -93.20789 | 825 ft | 0 kts | 25° |